Accueil
METAR-TAF:

METAR-TAF

Aéroports :

Base de soutien de la 5e Division du Canada Gagetown

Gagetown, Nouveau-Brunswick, Canada

latitude: 45-50N, longitude: 066-26W, altitude: 51 m

Observation

Le bulletin a été fait il y a 52 minutes, à 01:00 UTC
Vent 8 kt de sud/sud-ouest
Température -9°C
Humidité 34%
Pression 1021 hPa
Visibilité: 14.5 km
Quelques nuages à une hauteur de 8900 ft

METAR: CYCX 220100Z AUTO 21008KT 9SM FEW089 M09/M22 A3016 RMK SLP216

Heure: 21:52 (01:52 UTC)

Prévision

Le bulletin a été fait il y a 2 heures et 22 minutes, à 23:30 UTC
Prévision valable du 22 à 00 UTC au 22 à 12 UTC
Vent 5 kt de sud/sud-ouest
Visibilité: 10 km
Ciel clair

TAF: CYCX 212330Z 2200/2212 20005KT P6SM SKC RMK NXT FCST BY 220600Z

Observations et prévisions météorologiques de plus de 4000 aéroports (messages METAR et TAF).

Les stations disponibles sont représentées par des disques jaunes et rouges sur la carte.

Passer la souris dessus pour voir le nom de la station.

Cliquer dessus pour voir les observations et prévisions météorologiques.

Pour changer de carte: cliquez sur les boutons verts avec une croix noire pour zoomer, sur le bouton vert avec un tiret pour effectuer un zoom arrière, ou sur les flèches vertes pour les cartes adjacentes.


METAR-TAF: